sensor_id;sensor_type;location;lat;lon;timestamp;temperature;humidity
75372;HTU21D;63956;52.006;5.878;2023-04-03T00:01:41;3.38;83.13
75372;HTU21D;63956;52.006;5.878;2023-04-03T00:04:10;3.36;83.09
75372;HTU21D;63956;52.006;5.878;2023-04-03T00:06:39;3.34;83.04
75372;HTU21D;63956;52.006;5.878;2023-04-03T00:09:08;3.34;83.09
75372;HTU21D;63956;52.006;5.878;2023-04-03T00:11:38;3.32;83.03
75372;HTU21D;63956;52.006;5.878;2023-04-03T00:14:09;3.30;83.20
75372;HTU21D;63956;52.006;5.878;2023-04-03T00:16:38;3.29;83.01
75372;HTU21D;63956;52.006;5.878;2023-04-03T00:19:08;3.29;83.00
75372;HTU21D;63956;52.006;5.878;2023-04-03T00:21:38;3.27;83.01
75372;HTU21D;63956;52.006;5.878;2023-04-03T00:24:07;3.26;83.04
75372;HTU21D;63956;52.006;5.878;2023-04-03T00:26:36;3.24;82.99
75372;HTU21D;63956;52.006;5.878;2023-04-03T00:29:05;3.23;82.99
75372;HTU21D;63956;52.006;5.878;2023-04-03T00:31:37;3.20;83.18
75372;HTU21D;63956;52.006;5.878;2023-04-03T00:34:06;3.21;82.97
75372;HTU21D;63956;52.006;5.878;2023-04-03T00:36:36;3.19;82.98
75372;HTU21D;63956;52.006;5.878;2023-04-03T00:39:05;3.18;82.88
75372;HTU21D;63956;52.006;5.878;2023-04-03T00:41:34;3.18;82.91
75372;HTU21D;63956;52.006;5.878;2023-04-03T00:44:19;3.16;83.86
75372;HTU21D;63956;52.006;5.878;2023-04-03T00:46:51;3.14;83.02
75372;HTU21D;63956;52.006;5.878;2023-04-03T00:49:21;3.10;82.88
75372;HTU21D;63956;52.006;5.878;2023-04-03T00:51:50;3.09;82.89
75372;HTU21D;63956;52.006;5.878;2023-04-03T00:54:20;3.09;82.86
75372;HTU21D;63956;52.006;5.878;2023-04-03T00:56:51;3.05;83.00
75372;HTU21D;63956;52.006;5.878;2023-04-03T00:59:24;3.03;82.99
75372;HTU21D;63956;52.006;5.878;2023-04-03T01:01:57;3.01;82.89
75372;HTU21D;63956;52.006;5.878;2023-04-03T01:04:29;2.99;83.00
75372;HTU21D;63956;52.006;5.878;2023-04-03T01:07:00;2.98;83.00
75372;HTU21D;63956;52.006;5.878;2023-04-03T01:09:32;2.97;82.92
75372;HTU21D;63956;52.006;5.878;2023-04-03T01:12:13;2.95;83.70
75372;HTU21D;63956;52.006;5.878;2023-04-03T01:14:43;2.93;82.81
75372;HTU21D;63956;52.006;5.878;2023-04-03T01:17:31;2.91;84.03
75372;HTU21D;63956;52.006;5.878;2023-04-03T01:23:17;2.87;83.14
75372;HTU21D;63956;52.006;5.878;2023-04-03T01:25:51;2.84;82.95
75372;HTU21D;63956;52.006;5.878;2023-04-03T01:28:23;2.82;82.99
75372;HTU21D;63956;52.006;5.878;2023-04-03T01:30:59;2.80;83.17
75372;HTU21D;63956;52.006;5.878;2023-04-03T01:33:34;2.81;83.10
75372;HTU21D;63956;52.006;5.878;2023-04-03T01:36:05;2.78;82.97
75372;HTU21D;63956;52.006;5.878;2023-04-03T01:38:35;2.76;82.78
75372;HTU21D;63956;52.006;5.878;2023-04-03T01:41:05;2.78;83.00
75372;HTU21D;63956;52.006;5.878;2023-04-03T01:43:34;2.78;82.97
75372;HTU21D;63956;52.006;5.878;2023-04-03T01:46:03;2.78;83.10
75372;HTU21D;63956;52.006;5.878;2023-04-03T01:48:35;2.78;83.14
75372;HTU21D;63956;52.006;5.878;2023-04-03T01:51:04;2.79;83.06
75372;HTU21D;63956;52.006;5.878;2023-04-03T01:53:34;2.79;83.09
75372;HTU21D;63956;52.006;5.878;2023-04-03T01:56:03;2.78;83.12
75372;HTU21D;63956;52.006;5.878;2023-04-03T01:58:34;2.78;83.12
75372;HTU21D;63956;52.006;5.878;2023-04-03T02:01:03;2.78;83.07
75372;HTU21D;63956;52.006;5.878;2023-04-03T02:03:35;2.78;83.26
75372;HTU21D;63956;52.006;5.878;2023-04-03T02:06:05;2.79;83.11
75372;HTU21D;63956;52.006;5.878;2023-04-03T02:08:34;2.80;83.09
75372;HTU21D;63956;52.006;5.878;2023-04-03T02:11:06;2.80;83.10
75372;HTU21D;63956;52.006;5.878;2023-04-03T02:13:35;2.80;83.07
75372;HTU21D;63956;52.006;5.878;2023-04-03T02:16:08;2.78;83.29
75372;HTU21D;63956;52.006;5.878;2023-04-03T02:18:42;2.76;83.10
75372;HTU21D;63956;52.006;5.878;2023-04-03T02:21:11;2.76;83.08
75372;HTU21D;63956;52.006;5.878;2023-04-03T02:23:40;2.76;83.10
75372;HTU21D;63956;52.006;5.878;2023-04-03T02:26:11;2.75;83.07
75372;HTU21D;63956;52.006;5.878;2023-04-03T02:28:41;2.76;83.09
75372;HTU21D;63956;52.006;5.878;2023-04-03T02:31:12;2.76;82.97
75372;HTU21D;63956;52.006;5.878;2023-04-03T02:33:46;2.74;83.19
75372;HTU21D;63956;52.006;5.878;2023-04-03T02:36:16;2.74;83.10
75372;HTU21D;63956;52.006;5.878;2023-04-03T02:38:51;2.74;82.99
75372;HTU21D;63956;52.006;5.878;2023-04-03T02:41:20;2.75;83.07
75372;HTU21D;63956;52.006;5.878;2023-04-03T02:43:52;2.74;83.04
75372;HTU21D;63956;52.006;5.878;2023-04-03T02:46:21;2.73;83.08
75372;HTU21D;63956;52.006;5.878;2023-04-03T02:48:53;2.73;83.13
75372;HTU21D;63956;52.006;5.878;2023-04-03T02:51:23;2.75;83.03
75372;HTU21D;63956;52.006;5.878;2023-04-03T02:53:53;2.74;82.97
75372;HTU21D;63956;52.006;5.878;2023-04-03T02:56:26;2.73;83.00
75372;HTU21D;63956;52.006;5.878;2023-04-03T02:58:55;2.73;83.01
75372;HTU21D;63956;52.006;5.878;2023-04-03T03:01:25;2.71;83.04
75372;HTU21D;63956;52.006;5.878;2023-04-03T03:04:00;2.69;83.13
75372;HTU21D;63956;52.006;5.878;2023-04-03T03:06:29;2.69;83.05
75372;HTU21D;63956;52.006;5.878;2023-04-03T03:08:58;2.70;83.10
75372;HTU21D;63956;52.006;5.878;2023-04-03T03:11:27;2.69;82.98
75372;HTU21D;63956;52.006;5.878;2023-04-03T03:13:57;2.69;83.12
75372;HTU21D;63956;52.006;5.878;2023-04-03T03:16:26;2.69;83.12
75372;HTU21D;63956;52.006;5.878;2023-04-03T03:18:56;2.69;83.08
75372;HTU21D;63956;52.006;5.878;2023-04-03T03:21:28;2.68;83.03
75372;HTU21D;63956;52.006;5.878;2023-04-03T03:23:58;2.69;82.97
75372;HTU21D;63956;52.006;5.878;2023-04-03T03:26:27;2.69;83.00
75372;HTU21D;63956;52.006;5.878;2023-04-03T03:28:56;2.68;82.94
75372;HTU21D;63956;52.006;5.878;2023-04-03T03:31:26;2.66;83.01
75372;HTU21D;63956;52.006;5.878;2023-04-03T03:33:57;2.67;83.00
75372;HTU21D;63956;52.006;5.878;2023-04-03T03:36:28;2.64;83.08
75372;HTU21D;63956;52.006;5.878;2023-04-03T03:38:58;2.66;82.98
75372;HTU21D;63956;52.006;5.878;2023-04-03T03:41:27;2.64;82.91
75372;HTU21D;63956;52.006;5.878;2023-04-03T03:43:57;2.62;82.94
75372;HTU21D;63956;52.006;5.878;2023-04-03T03:46:29;2.60;82.75
75372;HTU21D;63956;52.006;5.878;2023-04-03T03:48:58;2.58;82.78
75372;HTU21D;63956;52.006;5.878;2023-04-03T03:51:30;2.56;83.03
75372;HTU21D;63956;52.006;5.878;2023-04-03T03:53:59;2.56;82.90
75372;HTU21D;63956;52.006;5.878;2023-04-03T03:56:28;2.55;82.87
75372;HTU21D;63956;52.006;5.878;2023-04-03T03:58:58;2.54;82.87
75372;HTU21D;63956;52.006;5.878;2023-04-03T04:01:27;2.52;82.73
75372;HTU21D;63956;52.006;5.878;2023-04-03T04:03:56;2.51;82.81
75372;HTU21D;63956;52.006;5.878;2023-04-03T04:06:33;2.47;82.91
75372;HTU21D;63956;52.006;5.878;2023-04-03T04:09:05;2.45;82.75
75372;HTU21D;63956;52.006;5.878;2023-04-03T04:11:34;2.44;82.71
75372;HTU21D;63956;52.006;5.878;2023-04-03T04:14:06;2.42;82.76
75372;HTU21D;63956;52.006;5.878;2023-04-03T04:16:37;2.40;82.67
75372;HTU21D;63956;52.006;5.878;2023-04-03T04:19:12;2.39;82.69
75372;HTU21D;63956;52.006;5.878;2023-04-03T04:21:46;2.36;82.85
75372;HTU21D;63956;52.006;5.878;2023-04-03T04:24:16;2.35;82.70
75372;HTU21D;63956;52.006;5.878;2023-04-03T04:26:47;2.34;82.70
75372;HTU21D;63956;52.006;5.878;2023-04-03T04:29:17;2.34;82.78
75372;HTU21D;63956;52.006;5.878;2023-04-03T04:31:49;2.31;82.68
75372;HTU21D;63956;52.006;5.878;2023-04-03T04:34:18;2.29;82.77
75372;HTU21D;63956;52.006;5.878;2023-04-03T04:36:50;2.28;82.78
75372;HTU21D;63956;52.006;5.878;2023-04-03T04:39:19;2.27;82.73
75372;HTU21D;63956;52.006;5.878;2023-04-03T04:41:49;2.27;82.58
75372;HTU21D;63956;52.006;5.878;2023-04-03T04:44:18;2.26;82.78
75372;HTU21D;63956;52.006;5.878;2023-04-03T04:46:47;2.28;84.30
75372;HTU21D;63956;52.006;5.878;2023-04-03T04:49:17;2.22;82.62
75372;HTU21D;63956;52.006;5.878;2023-04-03T04:51:46;2.22;84.33
75372;HTU21D;63956;52.006;5.878;2023-04-03T04:54:20;2.15;82.87
75372;HTU21D;63956;52.006;5.878;2023-04-03T04:56:49;2.14;82.71
75372;HTU21D;63956;52.006;5.878;2023-04-03T04:59:19;2.11;82.80
75372;HTU21D;63956;52.006;5.878;2023-04-03T05:01:50;2.10;82.91
75372;HTU21D;63956;52.006;5.878;2023-04-03T05:04:20;2.10;82.93
75372;HTU21D;63956;52.006;5.878;2023-04-03T05:06:54;2.12;82.91
75372;HTU21D;63956;52.006;5.878;2023-04-03T05:09:30;2.10;83.05
75372;HTU21D;63956;52.006;5.878;2023-04-03T05:11:59;2.11;82.92
75372;HTU21D;63956;52.006;5.878;2023-04-03T05:14:33;2.12;82.97
75372;HTU21D;63956;52.006;5.878;2023-04-03T05:17:06;2.11;82.87
75372;HTU21D;63956;52.006;5.878;2023-04-03T05:19:39;2.12;82.77
75372;HTU21D;63956;52.006;5.878;2023-04-03T05:22:10;2.12;82.92
75372;HTU21D;63956;52.006;5.878;2023-04-03T05:24:42;2.12;83.00
75372;HTU21D;63956;52.006;5.878;2023-04-03T05:27:11;2.14;82.86
75372;HTU21D;63956;52.006;5.878;2023-04-03T05:29:44;2.15;82.91
75372;HTU21D;63956;52.006;5.878;2023-04-03T05:32:20;2.15;82.80
75372;HTU21D;63956;52.006;5.878;2023-04-03T05:34:55;2.17;82.92
75372;HTU21D;63956;52.006;5.878;2023-04-03T05:37:25;2.16;82.87
75372;HTU21D;63956;52.006;5.878;2023-04-03T05:39:57;2.17;83.07
75372;HTU21D;63956;52.006;5.878;2023-04-03T05:42:27;2.19;83.00
75372;HTU21D;63956;52.006;5.878;2023-04-03T05:44:56;2.20;83.00
75372;HTU21D;63956;52.006;5.878;2023-04-03T05:47:25;2.21;82.92
75372;HTU21D;63956;52.006;5.878;2023-04-03T05:49:55;2.21;82.98
75372;HTU21D;63956;52.006;5.878;2023-04-03T05:52:26;2.26;84.55
75372;HTU21D;63956;52.006;5.878;2023-04-03T05:54:58;2.22;83.16
75372;HTU21D;63956;52.006;5.878;2023-04-03T05:57:29;2.22;83.07
75372;HTU21D;63956;52.006;5.878;2023-04-03T05:59:58;2.23;83.16
75372;HTU21D;63956;52.006;5.878;2023-04-03T06:02:29;2.25;83.13
75372;HTU21D;63956;52.006;5.878;2023-04-03T06:05:00;2.27;83.05
75372;HTU21D;63956;52.006;5.878;2023-04-03T06:07:29;2.29;83.16
75372;HTU21D;63956;52.006;5.878;2023-04-03T06:10:02;2.31;83.37
75372;HTU21D;63956;52.006;5.878;2023-04-03T06:12:31;2.35;83.28
75372;HTU21D;63956;52.006;5.878;2023-04-03T06:15:00;2.37;83.32
75372;HTU21D;63956;52.006;5.878;2023-04-03T06:17:29;2.39;83.27
75372;HTU21D;63956;52.006;5.878;2023-04-03T06:19:59;2.41;83.30
75372;HTU21D;63956;52.006;5.878;2023-04-03T06:22:29;2.43;83.20
75372;HTU21D;63956;52.006;5.878;2023-04-03T06:25:04;2.47;83.42
75372;HTU21D;63956;52.006;5.878;2023-04-03T06:27:33;2.49;83.21
75372;HTU21D;63956;52.006;5.878;2023-04-03T06:30:03;2.52;83.36
75372;HTU21D;63956;52.006;5.878;2023-04-03T06:32:32;2.55;83.29
75372;HTU21D;63956;52.006;5.878;2023-04-03T06:35:02;2.57;83.20
75372;HTU21D;63956;52.006;5.878;2023-04-03T06:37:31;2.58;83.16
75372;HTU21D;63956;52.006;5.878;2023-04-03T06:40:04;2.60;83.45
75372;HTU21D;63956;52.006;5.878;2023-04-03T06:42:35;2.64;83.45
75372;HTU21D;63956;52.006;5.878;2023-04-03T06:45:10;2.65;83.34
75372;HTU21D;63956;52.006;5.878;2023-04-03T06:47:39;2.69;83.36
75372;HTU21D;63956;52.006;5.878;2023-04-03T06:50:10;2.70;83.54
75372;HTU21D;63956;52.006;5.878;2023-04-03T06:52:40;2.75;83.40
75372;HTU21D;63956;52.006;5.878;2023-04-03T06:55:12;2.79;83.54
75372;HTU21D;63956;52.006;5.878;2023-04-03T06:57:42;2.81;83.45
75372;HTU21D;63956;52.006;5.878;2023-04-03T07:00:12;2.85;83.44
75372;HTU21D;63956;52.006;5.878;2023-04-03T07:02:42;2.89;83.57
75372;HTU21D;63956;52.006;5.878;2023-04-03T07:05:11;2.95;83.58
75372;HTU21D;63956;52.006;5.878;2023-04-03T07:07:40;2.99;83.61
75372;HTU21D;63956;52.006;5.878;2023-04-03T07:10:12;3.05;83.61
75372;HTU21D;63956;52.006;5.878;2023-04-03T07:12:41;3.14;83.61
75372;HTU21D;63956;52.006;5.878;2023-04-03T07:15:11;3.21;83.68
75372;HTU21D;63956;52.006;5.878;2023-04-03T07:17:40;3.31;83.71
75372;HTU21D;63956;52.006;5.878;2023-04-03T07:20:10;3.40;83.63
75372;HTU21D;63956;52.006;5.878;2023-04-03T07:22:41;3.47;83.65
75372;HTU21D;63956;52.006;5.878;2023-04-03T07:25:13;3.53;83.67
75372;HTU21D;63956;52.006;5.878;2023-04-03T07:27:42;3.56;83.44
75372;HTU21D;63956;52.006;5.878;2023-04-03T07:30:12;3.60;83.54
75372;HTU21D;63956;52.006;5.878;2023-04-03T07:32:42;3.67;83.53
75372;HTU21D;63956;52.006;5.878;2023-04-03T07:35:11;3.69;83.44
75372;HTU21D;63956;52.006;5.878;2023-04-03T07:37:40;3.79;85.38
75372;HTU21D;63956;52.006;5.878;2023-04-03T07:40:12;3.78;83.40
75372;HTU21D;63956;52.006;5.878;2023-04-03T07:42:41;3.85;83.55
75372;HTU21D;63956;52.006;5.878;2023-04-03T07:45:10;3.95;85.51
75372;HTU21D;63956;52.006;5.878;2023-04-03T07:47:39;3.95;83.34
75372;HTU21D;63956;52.006;5.878;2023-04-03T07:50:09;4.03;83.36
75372;HTU21D;63956;52.006;5.878;2023-04-03T07:52:38;4.12;83.45
75372;HTU21D;63956;52.006;5.878;2023-04-03T07:55:08;4.22;83.68
75372;HTU21D;63956;52.006;5.878;2023-04-03T07:57:40;4.34;83.61
75372;HTU21D;63956;52.006;5.878;2023-04-03T08:00:11;4.49;83.18
75372;HTU21D;63956;52.006;5.878;2023-04-03T08:02:41;4.67;83.55
75372;HTU21D;63956;52.006;5.878;2023-04-03T08:05:10;4.96;86.03
75372;HTU21D;63956;52.006;5.878;2023-04-03T08:07:39;5.10;83.40
75372;HTU21D;63956;52.006;5.878;2023-04-03T08:10:08;5.28;83.55
75372;HTU21D;63956;52.006;5.878;2023-04-03T08:12:40;5.57;86.16
75372;HTU21D;63956;52.006;5.878;2023-04-03T08:15:10;5.78;83.67
75372;HTU21D;63956;52.006;5.878;2023-04-03T08:17:39;6.04;83.32
75372;HTU21D;63956;52.006;5.878;2023-04-03T08:20:09;6.42;86.32
75372;HTU21D;63956;52.006;5.878;2023-04-03T08:22:38;6.63;83.74
75372;HTU21D;63956;52.006;5.878;2023-04-03T08:25:09;6.86;82.53
75372;HTU21D;63956;52.006;5.878;2023-04-03T08:27:41;7.08;83.16
75372;HTU21D;63956;52.006;5.878;2023-04-03T08:30:11;7.28;82.12
75372;HTU21D;63956;52.006;5.878;2023-04-03T08:32:40;7.42;81.30
75372;HTU21D;63956;52.006;5.878;2023-04-03T08:35:10;7.58;82.07
75372;HTU21D;63956;52.006;5.878;2023-04-03T08:37:40;7.71;80.65
75372;HTU21D;63956;52.006;5.878;2023-04-03T08:40:14;7.88;81.72
75372;HTU21D;63956;52.006;5.878;2023-04-03T08:42:54;8.02;81.49
75372;HTU21D;63956;52.006;5.878;2023-04-03T08:45:37;8.16;82.81
75372;HTU21D;63956;52.006;5.878;2023-04-03T08:48:14;8.28;79.59
75372;HTU21D;63956;52.006;5.878;2023-04-03T08:50:47;8.37;81.65
75372;HTU21D;63956;52.006;5.878;2023-04-03T08:53:19;8.50;80.70
75372;HTU21D;63956;52.006;5.878;2023-04-03T08:55:50;8.65;80.96
75372;HTU21D;63956;52.006;5.878;2023-04-03T08:58:24;8.79;80.38
75372;HTU21D;63956;52.006;5.878;2023-04-03T09:00:57;8.89;80.42
75372;HTU21D;63956;52.006;5.878;2023-04-03T09:03:29;8.97;81.08
75372;HTU21D;63956;52.006;5.878;2023-04-03T09:06:03;9.09;80.20
75372;HTU21D;63956;52.006;5.878;2023-04-03T09:08:34;9.18;79.26
75372;HTU21D;63956;52.006;5.878;2023-04-03T09:11:16;9.24;79.06
75372;HTU21D;63956;52.006;5.878;2023-04-03T09:13:53;9.27;80.14
75372;HTU21D;63956;52.006;5.878;2023-04-03T09:16:31;9.34;80.47
75372;HTU21D;63956;52.006;5.878;2023-04-03T09:19:10;9.36;80.95
75372;HTU21D;63956;52.006;5.878;2023-04-03T09:21:39;9.37;79.08
75372;HTU21D;63956;52.006;5.878;2023-04-03T09:24:12;9.36;77.87
75372;HTU21D;63956;52.006;5.878;2023-04-03T09:26:44;9.35;78.48
75372;HTU21D;63956;52.006;5.878;2023-04-03T09:29:19;9.36;78.36
75372;HTU21D;63956;52.006;5.878;2023-04-03T09:31:49;9.41;83.55
75372;HTU21D;63956;52.006;5.878;2023-04-03T09:34:22;9.36;78.02
75372;HTU21D;63956;52.006;5.878;2023-04-03T09:36:53;9.34;78.08
75372;HTU21D;63956;52.006;5.878;2023-04-03T09:39:25;9.33;76.95
75372;HTU21D;63956;52.006;5.878;2023-04-03T09:42:00;9.33;79.02
75372;HTU21D;63956;52.006;5.878;2023-04-03T09:44:34;9.35;77.37
75372;HTU21D;63956;52.006;5.878;2023-04-03T09:47:18;9.39;79.55
75372;HTU21D;63956;52.006;5.878;2023-04-03T09:49:52;9.49;83.49
75372;HTU21D;63956;52.006;5.878;2023-04-03T09:52:37;9.46;79.01
75372;HTU21D;63956;52.006;5.878;2023-04-03T09:55:07;9.51;79.15
75372;HTU21D;63956;52.006;5.878;2023-04-03T09:57:39;9.59;77.81
75372;HTU21D;63956;52.006;5.878;2023-04-03T10:00:19;9.72;83.82
75372;HTU21D;63956;52.006;5.878;2023-04-03T10:02:51;9.71;78.59
75372;HTU21D;63956;52.006;5.878;2023-04-03T10:05:27;9.77;79.02
75372;HTU21D;63956;52.006;5.878;2023-04-03T10:08:10;9.90;84.03
75372;HTU21D;63956;52.006;5.878;2023-04-03T10:10:41;9.93;77.55
75372;HTU21D;63956;52.006;5.878;2023-04-03T10:13:13;10.05;77.51
75372;HTU21D;63956;52.006;5.878;2023-04-03T10:15:51;10.20;80.89
75372;HTU21D;63956;52.006;5.878;2023-04-03T10:18:29;10.36;79.91
75372;HTU21D;63956;52.006;5.878;2023-04-03T10:21:05;10.51;80.31
75372;HTU21D;63956;52.006;5.878;2023-04-03T10:23:41;10.64;80.84
75372;HTU21D;63956;52.006;5.878;2023-04-03T10:26:17;10.75;78.16
75372;HTU21D;63956;52.006;5.878;2023-04-03T10:28:56;10.90;79.40
75372;HTU21D;63956;52.006;5.878;2023-04-03T10:31:34;10.97;78.33
75372;HTU21D;63956;52.006;5.878;2023-04-03T10:34:15;11.02;78.57
75372;HTU21D;63956;52.006;5.878;2023-04-03T10:36:55;11.10;80.30
75372;HTU21D;63956;52.006;5.878;2023-04-03T10:39:33;11.15;79.18
75372;HTU21D;63956;52.006;5.878;2023-04-03T10:42:11;11.22;77.96
75372;HTU21D;63956;52.006;5.878;2023-04-03T10:44:54;11.23;78.79
75372;HTU21D;63956;52.006;5.878;2023-04-03T10:47:36;11.19;78.12
75372;HTU21D;63956;52.006;5.878;2023-04-03T10:50:29;11.18;80.63
75372;HTU21D;63956;52.006;5.878;2023-04-03T10:53:04;11.17;79.36
75372;HTU21D;63956;52.006;5.878;2023-04-03T10:55:38;11.15;77.15
75372;HTU21D;63956;52.006;5.878;2023-04-03T10:58:18;11.07;76.31
75372;HTU21D;63956;52.006;5.878;2023-04-03T11:00:50;10.95;76.60
75372;HTU21D;63956;52.006;5.878;2023-04-03T11:03:30;10.87;77.76
75372;HTU21D;63956;52.006;5.878;2023-04-03T11:06:02;10.82;74.05
75372;HTU21D;63956;52.006;5.878;2023-04-03T11:08:37;10.80;75.03
75372;HTU21D;63956;52.006;5.878;2023-04-03T11:11:11;10.78;77.31
75372;HTU21D;63956;52.006;5.878;2023-04-03T11:13:44;10.82;77.85
75372;HTU21D;63956;52.006;5.878;2023-04-03T11:16:18;10.85;77.48
75372;HTU21D;63956;52.006;5.878;2023-04-03T11:18:54;10.95;78.59
75372;HTU21D;63956;52.006;5.878;2023-04-03T11:21:28;11.03;76.94
75372;HTU21D;63956;52.006;5.878;2023-04-03T11:23:59;11.11;75.29
75372;HTU21D;63956;52.006;5.878;2023-04-03T11:26:31;11.18;78.40
75372;HTU21D;63956;52.006;5.878;2023-04-03T11:29:08;11.28;77.82
75372;HTU21D;63956;52.006;5.878;2023-04-03T11:32:01;11.36;77.60
75372;HTU21D;63956;52.006;5.878;2023-04-03T11:34:38;11.39;76.11
75372;HTU21D;63956;52.006;5.878;2023-04-03T11:37:15;11.37;78.09
75372;HTU21D;63956;52.006;5.878;2023-04-03T11:39:50;11.37;78.32
75372;HTU21D;63956;52.006;5.878;2023-04-03T11:42:27;11.39;77.08
75372;HTU21D;63956;52.006;5.878;2023-04-03T11:48:09;11.39;76.20
75372;HTU21D;63956;52.006;5.878;2023-04-03T11:51:00;11.42;75.60
75372;HTU21D;63956;52.006;5.878;2023-04-03T11:53:34;11.48;77.61
75372;HTU21D;63956;52.006;5.878;2023-04-03T11:56:30;11.49;80.90
75372;HTU21D;63956;52.006;5.878;2023-04-03T11:59:16;11.49;79.27
75372;HTU21D;63956;52.006;5.878;2023-04-03T12:01:50;11.49;77.50
75372;HTU21D;63956;52.006;5.878;2023-04-03T12:04:22;11.49;75.79
75372;HTU21D;63956;52.006;5.878;2023-04-03T12:07:12;11.53;80.34
75372;HTU21D;63956;52.006;5.878;2023-04-03T12:10:00;11.57;80.54
75372;HTU21D;63956;52.006;5.878;2023-04-03T12:12:37;11.59;77.32
75372;HTU21D;63956;52.006;5.878;2023-04-03T12:18:40;11.69;81.02
75372;HTU21D;63956;52.006;5.878;2023-04-03T12:21:11;11.73;77.71
75372;HTU21D;63956;52.006;5.878;2023-04-03T12:24:05;11.87;80.43
75372;HTU21D;63956;52.006;5.878;2023-04-03T12:27:02;11.96;78.25
75372;HTU21D;63956;52.006;5.878;2023-04-03T12:29:36;12.02;76.96
75372;HTU21D;63956;52.006;5.878;2023-04-03T12:32:15;12.13;77.88
75372;HTU21D;63956;52.006;5.878;2023-04-03T12:35:01;12.23;78.62
75372;HTU21D;63956;52.006;5.878;2023-04-03T12:37:50;12.32;77.52
75372;HTU21D;63956;52.006;5.878;2023-04-03T12:40:31;12.37;78.14
75372;HTU21D;63956;52.006;5.878;2023-04-03T12:43:22;12.43;79.72
75372;HTU21D;63956;52.006;5.878;2023-04-03T12:46:02;12.38;78.43
75372;HTU21D;63956;52.006;5.878;2023-04-03T12:48:37;12.34;76.43
75372;HTU21D;63956;52.006;5.878;2023-04-03T12:51:07;12.28;73.74
75372;HTU21D;63956;52.006;5.878;2023-04-03T12:53:37;12.21;75.31
75372;HTU21D;63956;52.006;5.878;2023-04-03T12:56:23;12.21;79.27
75372;HTU21D;63956;52.006;5.878;2023-04-03T12:58:54;12.21;74.65
75372;HTU21D;63956;52.006;5.878;2023-04-03T13:01:25;12.23;76.41
75372;HTU21D;63956;52.006;5.878;2023-04-03T13:03:56;12.21;72.65
75372;HTU21D;63956;52.006;5.878;2023-04-03T13:06:28;12.23;76.14
75372;HTU21D;63956;52.006;5.878;2023-04-03T13:09:00;12.36;73.82
75372;HTU21D;63956;52.006;5.878;2023-04-03T13:11:35;12.48;77.02
75372;HTU21D;63956;52.006;5.878;2023-04-03T13:14:15;12.53;77.21
75372;HTU21D;63956;52.006;5.878;2023-04-03T13:16:53;12.53;76.44
75372;HTU21D;63956;52.006;5.878;2023-04-03T13:19:23;12.61;75.54
75372;HTU21D;63956;52.006;5.878;2023-04-03T13:21:58;12.75;77.07
75372;HTU21D;63956;52.006;5.878;2023-04-03T13:24:29;12.87;75.60
75372;HTU21D;63956;52.006;5.878;2023-04-03T13:27:01;12.97;73.42
75372;HTU21D;63956;52.006;5.878;2023-04-03T13:29:34;13.03;74.18
75372;HTU21D;63956;52.006;5.878;2023-04-03T13:32:05;13.05;74.93
75372;HTU21D;63956;52.006;5.878;2023-04-03T13:34:40;13.12;75.51
75372;HTU21D;63956;52.006;5.878;2023-04-03T13:37:20;13.14;76.69
75372;HTU21D;63956;52.006;5.878;2023-04-03T13:40:02;13.16;77.44
75372;HTU21D;63956;52.006;5.878;2023-04-03T13:42:37;13.16;74.64
75372;HTU21D;63956;52.006;5.878;2023-04-03T13:45:17;13.19;76.61
75372;HTU21D;63956;52.006;5.878;2023-04-03T13:47:48;13.17;76.08
75372;HTU21D;63956;52.006;5.878;2023-04-03T13:50:20;13.12;74.83
75372;HTU21D;63956;52.006;5.878;2023-04-03T13:52:53;13.14;76.37
75372;HTU21D;63956;52.006;5.878;2023-04-03T13:55:26;13.12;71.46
75372;HTU21D;63956;52.006;5.878;2023-04-03T13:58:01;13.08;75.38
75372;HTU21D;63956;52.006;5.878;2023-04-03T14:00:37;13.08;74.85
75372;HTU21D;63956;52.006;5.878;2023-04-03T14:03:13;13.09;76.74
75372;HTU21D;63956;52.006;5.878;2023-04-03T14:05:43;13.08;75.39
75372;HTU21D;63956;52.006;5.878;2023-04-03T14:08:12;13.05;73.63
75372;HTU21D;63956;52.006;5.878;2023-04-03T14:10:42;13.03;74.41
75372;HTU21D;63956;52.006;5.878;2023-04-03T14:13:15;13.05;75.46
75372;HTU21D;63956;52.006;5.878;2023-04-03T14:15:46;13.05;74.18
75372;HTU21D;63956;52.006;5.878;2023-04-03T14:18:19;13.07;74.43
75372;HTU21D;63956;52.006;5.878;2023-04-03T14:20:49;13.07;72.09
75372;HTU21D;63956;52.006;5.878;2023-04-03T14:23:19;13.02;73.51
75372;HTU21D;63956;52.006;5.878;2023-04-03T14:25:47;13.02;81.76
75372;HTU21D;63956;52.006;5.878;2023-04-03T14:28:21;12.90;76.60
75372;HTU21D;63956;52.006;5.878;2023-04-03T14:30:51;12.85;72.82
75372;HTU21D;63956;52.006;5.878;2023-04-03T14:33:21;12.81;75.98
75372;HTU21D;63956;52.006;5.878;2023-04-03T14:35:52;12.81;73.84
75372;HTU21D;63956;52.006;5.878;2023-04-03T14:38:24;12.78;74.42
75372;HTU21D;63956;52.006;5.878;2023-04-03T14:40:54;12.74;75.38
75372;HTU21D;63956;52.006;5.878;2023-04-03T14:43:26;12.65;71.67
75372;HTU21D;63956;52.006;5.878;2023-04-03T14:45:55;12.55;75.10
75372;HTU21D;63956;52.006;5.878;2023-04-03T14:48:27;12.45;74.51
75372;HTU21D;63956;52.006;5.878;2023-04-03T14:50:57;12.38;74.84
75372;HTU21D;63956;52.006;5.878;2023-04-03T14:53:26;12.32;75.81
75372;HTU21D;63956;52.006;5.878;2023-04-03T14:55:55;12.25;74.39
75372;HTU21D;63956;52.006;5.878;2023-04-03T14:58:27;12.23;75.76
75372;HTU21D;63956;52.006;5.878;2023-04-03T15:00:58;12.20;75.60
75372;HTU21D;63956;52.006;5.878;2023-04-03T15:03:27;12.11;75.83
75372;HTU21D;63956;52.006;5.878;2023-04-03T15:05:56;12.10;75.75
75372;HTU21D;63956;52.006;5.878;2023-04-03T15:08:27;12.07;75.73
75372;HTU21D;63956;52.006;5.878;2023-04-03T15:10:58;12.01;73.86
75372;HTU21D;63956;52.006;5.878;2023-04-03T15:13:30;11.97;76.34
75372;HTU21D;63956;52.006;5.878;2023-04-03T15:15:59;11.92;75.54
75372;HTU21D;63956;52.006;5.878;2023-04-03T15:18:31;11.88;76.05
75372;HTU21D;63956;52.006;5.878;2023-04-03T15:21:01;11.84;76.31
75372;HTU21D;63956;52.006;5.878;2023-04-03T15:23:31;11.79;73.84
75372;HTU21D;63956;52.006;5.878;2023-04-03T15:26:00;11.77;73.57
75372;HTU21D;63956;52.006;5.878;2023-04-03T15:28:34;11.73;75.22
75372;HTU21D;63956;52.006;5.878;2023-04-03T15:31:05;11.69;76.50
75372;HTU21D;63956;52.006;5.878;2023-04-03T15:33:35;11.64;76.19
75372;HTU21D;63956;52.006;5.878;2023-04-03T15:36:05;11.57;74.07
75372;HTU21D;63956;52.006;5.878;2023-04-03T15:38:35;11.53;75.09
75372;HTU21D;63956;52.006;5.878;2023-04-03T15:41:04;11.49;76.95
75372;HTU21D;63956;52.006;5.878;2023-04-03T15:43:36;11.51;76.01
75372;HTU21D;63956;52.006;5.878;2023-04-03T15:46:05;11.51;75.44
75372;HTU21D;63956;52.006;5.878;2023-04-03T15:48:35;11.47;74.61
75372;HTU21D;63956;52.006;5.878;2023-04-03T15:51:05;11.46;75.28
75372;HTU21D;63956;52.006;5.878;2023-04-03T15:53:34;11.43;74.49
75372;HTU21D;63956;52.006;5.878;2023-04-03T15:56:04;11.40;74.23
75372;HTU21D;63956;52.006;5.878;2023-04-03T15:58:36;11.37;75.13
75372;HTU21D;63956;52.006;5.878;2023-04-03T16:01:08;11.34;75.12
75372;HTU21D;63956;52.006;5.878;2023-04-03T16:03:40;11.32;76.05
75372;HTU21D;63956;52.006;5.878;2023-04-03T16:06:11;11.28;76.51
75372;HTU21D;63956;52.006;5.878;2023-04-03T16:08:40;11.25;74.54